Spring Branch, Texas
Current Conditions -  °F | °C
As of 4:55 PM on Wednesday 26 Nov 2014 (Local Time) from K5C1 Reporting Station
Clear Clear  
Wind Chill: 72°   Ceiling: Unl
Heat Index: 72°   Visibility: 10mi
Dew Point: 32°   Wind: 3mph
Humidity: 23%   Direction: 200°SSW
Pressure: 30.2"   Gusts: NA
Location:  29.89°N, 98.43°W
Report Text: K5C1 262255Z AUTO 20003KT 10SM CLR 22/00 A3020 RMK AO1
Loading
Personal Weather Stations






























Interactive Weather Map New forecast layout! Learn more

10-Day Weather Forecast

Advertisements
Track Severe Weather on mobile